createdAt,value
2024-02-05T00:00:56.103Z,64.37
2024-02-05T00:01:56.121Z,64.23
2024-02-05T00:02:55.894Z,64.19
2024-02-05T00:03:55.913Z,64.16
2024-02-05T00:04:55.891Z,64.33
2024-02-05T00:05:55.870Z,64.33
2024-02-05T00:06:56.034Z,64.56
2024-02-05T00:07:58.964Z,64.51
2024-02-05T00:08:55.889Z,64.74
2024-02-05T00:09:55.875Z,64.68
2024-02-05T00:10:55.830Z,64.55
2024-02-05T00:11:55.818Z,64.54
2024-02-05T00:12:55.851Z,64.61
2024-02-05T00:13:55.779Z,64.89
2024-02-05T00:14:55.746Z,65.20
2024-02-05T00:15:55.782Z,65.36
2024-02-05T00:16:55.719Z,65.51
2024-02-05T00:17:55.757Z,65.91
2024-02-05T00:18:55.736Z,66.26
2024-02-05T00:19:55.770Z,66.13
2024-02-05T00:20:55.673Z,66.16
2024-02-05T00:21:55.715Z,65.99
2024-02-05T00:22:55.653Z,65.90
2024-02-05T00:23:55.651Z,65.94
2024-02-05T00:24:55.643Z,65.96
2024-02-05T00:25:55.592Z,65.84
2024-02-05T00:26:55.579Z,65.74
2024-02-05T00:27:55.553Z,65.50
2024-02-05T00:28:55.556Z,65.35
2024-02-05T00:29:55.520Z,65.28
2024-02-05T00:30:55.527Z,65.33
2024-02-05T00:31:55.494Z,65.70
2024-02-05T00:32:55.571Z,65.63
2024-02-05T00:33:55.512Z,65.40
2024-02-05T00:34:55.457Z,65.14
2024-02-05T00:35:55.400Z,65.16
2024-02-05T00:36:55.412Z,65.14
2024-02-05T00:37:55.369Z,64.92
2024-02-05T00:38:55.367Z,64.86
2024-02-05T00:39:55.368Z,64.85
2024-02-05T00:40:55.332Z,64.98
2024-02-05T00:41:55.318Z,64.97
2024-02-05T00:42:55.323Z,65.03
2024-02-05T00:43:55.282Z,65.01
2024-02-05T00:44:55.268Z,64.97
2024-02-05T00:45:55.273Z,65.11
2024-02-05T00:46:55.183Z,65.59
2024-02-05T00:47:55.216Z,65.69
2024-02-05T00:48:55.305Z,65.76
2024-02-05T00:49:55.196Z,65.77
2024-02-05T00:50:55.107Z,65.62
2024-02-05T00:51:55.104Z,65.59
2024-02-05T00:52:55.047Z,65.45
2024-02-05T00:53:55.012Z,65.38
2024-02-05T00:54:54.992Z,65.27
2024-02-05T00:55:54.954Z,65.04
2024-02-05T00:56:54.940Z,64.91
2024-02-05T00:57:55.081Z,64.84
2024-02-05T00:58:55.061Z,64.79
2024-02-05T00:59:55.060Z,64.87
2024-02-05T01:00:55.160Z,64.98
2024-02-05T01:01:55.363Z,64.96
2024-02-05T01:02:55.152Z,64.94
2024-02-05T01:03:55.236Z,64.94
2024-02-05T01:04:55.316Z,65.16
2024-02-05T01:05:58.734Z,65.10
2024-02-05T01:06:55.251Z,65.13
2024-02-05T01:07:55.160Z,65.10
2024-02-05T01:08:55.088Z,65.08
2024-02-05T01:09:55.079Z,64.90
2024-02-05T01:10:55.013Z,64.85
2024-02-05T01:11:54.996Z,64.76
2024-02-05T01:12:55.014Z,64.69
2024-02-05T01:13:54.950Z,64.69
2024-02-05T01:14:54.916Z,64.93
2024-02-05T01:15:54.918Z,64.87
2024-02-05T01:16:54.862Z,64.95
2024-02-05T01:17:54.884Z,64.94
2024-02-05T01:18:54.862Z,64.87
2024-02-05T01:19:54.799Z,64.98
2024-02-05T01:20:54.761Z,65.09
2024-02-05T01:21:54.747Z,65.09
2024-02-05T01:22:54.679Z,65.14
2024-02-05T01:23:54.655Z,65.16
2024-02-05T01:24:54.697Z,65.02
2024-02-05T01:25:54.621Z,64.90
2024-02-05T01:26:54.588Z,64.87
2024-02-05T01:27:54.614Z,64.70
2024-02-05T01:28:54.547Z,64.56
2024-02-05T01:29:54.530Z,64.81
2024-02-05T01:30:54.532Z,64.99
2024-02-05T01:31:54.542Z,65.05
2024-02-05T01:32:54.545Z,65.30
2024-02-05T01:33:54.535Z,65.53
2024-02-05T01:34:54.635Z,65.74
2024-02-05T01:35:54.516Z,65.76
2024-02-05T01:36:54.589Z,65.73
2024-02-05T01:37:54.635Z,65.55
2024-02-05T01:38:54.620Z,65.37
2024-02-05T01:39:54.670Z,65.42
2024-02-05T01:40:54.700Z,65.48
2024-02-05T01:41:54.726Z,65.37
2024-02-05T01:42:54.809Z,65.43
2024-02-05T01:43:54.831Z,65.88
2024-02-05T01:44:54.847Z,66.22
2024-02-05T01:45:54.888Z,66.42
2024-02-05T01:46:54.917Z,66.41
2024-02-05T01:47:55.000Z,66.28
2024-02-05T01:48:55.030Z,66.18
2024-02-05T01:49:55.129Z,66.11
2024-02-05T01:50:55.024Z,66.03
2024-02-05T01:51:55.060Z,65.91
2024-02-05T01:52:55.042Z,65.92
2024-02-05T01:53:55.092Z,65.99
2024-02-05T01:54:55.160Z,66.08
2024-02-05T01:55:55.143Z,66.37
2024-02-05T01:56:55.175Z,66.42
2024-02-05T01:57:55.235Z,66.43
2024-02-05T01:58:55.256Z,66.17
2024-02-05T01:59:55.250Z,66.07
2024-02-05T02:00:55.381Z,66.09
2024-02-05T02:01:55.473Z,66.09
2024-02-05T02:02:55.345Z,66.01
2024-02-05T02:03:55.484Z,66.07
2024-02-05T02:04:55.427Z,65.95
2024-02-05T02:05:55.465Z,65.82
2024-02-05T02:06:55.466Z,65.80
2024-02-05T02:07:55.456Z,65.82
2024-02-05T02:08:55.453Z,65.77
2024-02-05T02:09:55.515Z,65.73
2024-02-05T02:10:55.411Z,65.63
2024-02-05T02:11:55.412Z,65.60
2024-02-05T02:12:55.426Z,65.58
2024-02-05T02:13:55.447Z,65.45
2024-02-05T02:14:55.428Z,65.34
2024-02-05T02:15:55.463Z,65.20
2024-02-05T02:16:55.427Z,65.26
2024-02-05T02:17:55.446Z,65.28
2024-02-05T02:18:55.460Z,65.27
2024-02-05T02:19:55.430Z,65.28
2024-02-05T02:20:55.345Z,65.37
2024-02-05T02:21:55.371Z,65.42
2024-02-05T02:22:55.305Z,65.48
2024-02-05T02:23:55.266Z,65.42
2024-02-05T02:24:55.241Z,65.41
2024-02-05T02:25:55.215Z,65.32
2024-02-05T02:26:55.179Z,65.22
2024-02-05T02:27:55.210Z,65.24
2024-02-05T02:28:55.141Z,65.30
2024-02-05T02:29:55.159Z,65.29
2024-02-05T02:30:55.129Z,65.33
2024-02-05T02:31:55.043Z,65.31
2024-02-05T02:32:55.126Z,65.33
2024-02-05T02:33:55.155Z,65.52
2024-02-05T02:34:55.108Z,65.48
2024-02-05T02:35:54.964Z,65.51
2024-02-05T02:36:55.007Z,65.39
2024-02-05T02:37:54.909Z,65.32
2024-02-05T02:38:54.894Z,65.23
2024-02-05T02:39:54.885Z,65.06
2024-02-05T02:40:54.860Z,65.07
2024-02-05T02:41:54.840Z,65.32
2024-02-05T02:42:54.858Z,65.41
2024-02-05T02:43:54.848Z,65.59
2024-02-05T02:44:54.815Z,65.59
2024-02-05T02:45:54.866Z,65.57
2024-02-05T02:46:54.859Z,65.56
2024-02-05T02:47:54.891Z,65.43
2024-02-05T02:48:56.022Z,65.74
2024-02-05T02:49:54.950Z,66.01
2024-02-05T02:50:54.975Z,66.08
2024-02-05T02:51:55.032Z,66.26
2024-02-05T02:52:55.048Z,66.69
2024-02-05T02:53:55.016Z,66.35
2024-02-05T02:54:55.045Z,66.26
2024-02-05T02:55:55.076Z,66.28
2024-02-05T02:56:55.129Z,66.23
2024-02-05T02:57:55.180Z,66.25
2024-02-05T02:58:55.210Z,66.09
2024-02-05T02:59:55.202Z,66.01
2024-02-05T03:00:55.300Z,65.90
2024-02-05T03:01:55.371Z,65.83
2024-02-05T03:02:55.268Z,65.81
2024-02-05T03:03:55.381Z,66.20
2024-02-05T03:04:55.444Z,66.14
2024-02-05T03:05:55.373Z,66.04
2024-02-05T03:06:55.399Z,65.92
2024-02-05T03:07:55.420Z,65.98
2024-02-05T03:08:55.486Z,65.86
2024-02-05T03:09:55.533Z,65.78
2024-02-05T03:10:55.550Z,65.70
2024-02-05T03:11:55.554Z,65.60
2024-02-05T03:12:55.569Z,65.67
2024-02-05T03:13:55.582Z,65.71
2024-02-05T03:14:55.638Z,65.79
2024-02-05T03:15:55.675Z,65.73
2024-02-05T03:16:55.702Z,65.71
2024-02-05T03:17:55.812Z,65.72
2024-02-05T03:18:55.832Z,65.60
2024-02-05T03:19:55.878Z,65.57
2024-02-05T03:20:55.700Z,65.53
2024-02-05T03:21:55.705Z,65.54
2024-02-05T03:23:02.613Z,65.53
2024-02-05T03:23:56.669Z,65.57
2024-02-05T03:24:55.710Z,65.67
2024-02-05T03:25:55.613Z,65.76
2024-02-05T03:26:55.577Z,65.80
2024-02-05T03:27:55.570Z,65.77
2024-02-05T03:28:55.575Z,65.78
2024-02-05T03:29:55.535Z,65.67
2024-02-05T03:30:55.629Z,65.75
2024-02-05T03:31:55.544Z,65.77
2024-02-05T03:32:55.455Z,65.75
2024-02-05T03:33:55.565Z,65.77
2024-02-05T03:34:55.451Z,65.79
2024-02-05T03:35:55.393Z,65.91
2024-02-05T03:36:55.467Z,66.04
2024-02-05T03:37:55.380Z,66.03
2024-02-05T03:38:55.351Z,65.81
2024-02-05T03:39:55.322Z,65.85
2024-02-05T03:40:55.356Z,65.82
2024-02-05T03:41:55.385Z,65.86
2024-02-05T03:42:55.550Z,65.81
2024-02-05T03:43:55.427Z,65.61
2024-02-05T03:44:55.430Z,65.59
2024-02-05T03:45:55.567Z,65.51
2024-02-05T03:46:55.530Z,65.42
2024-02-05T03:47:55.560Z,65.50
2024-02-05T03:48:55.678Z,65.52
2024-02-05T03:49:55.677Z,65.54
2024-02-05T03:50:55.512Z,65.62
2024-02-05T03:51:55.541Z,65.45
2024-02-05T03:52:55.542Z,65.47
2024-02-05T03:53:55.486Z,65.55
2024-02-05T03:54:55.543Z,65.68
2024-02-05T03:55:55.557Z,65.67
2024-02-05T03:56:55.592Z,65.65
2024-02-05T03:57:55.643Z,65.63
2024-02-05T03:58:55.664Z,65.65
2024-02-05T03:59:55.700Z,65.79
2024-02-05T04:00:55.791Z,66.12
2024-02-05T04:01:55.913Z,66.32
2024-02-05T04:02:55.816Z,66.69
2024-02-05T04:03:55.984Z,66.94
2024-02-05T04:04:55.918Z,67.08
2024-02-05T04:05:55.959Z,67.13
2024-02-05T04:06:55.995Z,67.09
2024-02-05T04:07:56.002Z,67.47
2024-02-05T04:08:56.030Z,67.36
2024-02-05T04:09:56.069Z,67.35
2024-02-05T04:10:56.095Z,67.38
2024-02-05T04:11:56.136Z,67.48
2024-02-05T04:12:56.351Z,67.35
2024-02-05T04:13:56.273Z,67.33
2024-02-05T04:14:56.296Z,67.63
2024-02-05T04:15:56.289Z,67.94
2024-02-05T04:16:56.269Z,68.09
2024-02-05T04:17:56.311Z,68.02
2024-02-05T04:18:56.314Z,68.20
2024-02-05T04:19:56.291Z,68.27
2024-02-05T04:20:56.242Z,68.23
2024-02-05T04:21:56.262Z,68.22
2024-02-05T04:22:56.215Z,68.25
2024-02-05T04:23:56.195Z,68.14
2024-02-05T04:24:56.192Z,68.05
2024-02-05T04:25:56.192Z,68.01
2024-02-05T04:26:56.154Z,67.93
2024-02-05T04:27:56.203Z,67.74
2024-02-05T04:28:56.117Z,67.68
2024-02-05T04:29:56.136Z,67.56
2024-02-05T04:30:56.160Z,67.51
2024-02-05T04:31:56.125Z,67.45
2024-02-05T04:32:56.187Z,67.30
2024-02-05T04:33:56.171Z,67.24
2024-02-05T04:34:56.217Z,67.24
2024-02-05T04:35:56.127Z,67.17
2024-02-05T04:36:56.204Z,67.09
2024-02-05T04:37:56.160Z,66.92
2024-02-05T04:38:56.207Z,67.07
2024-02-05T04:39:56.280Z,67.31
2024-02-05T04:40:56.252Z,67.43
2024-02-05T04:41:56.294Z,67.52
2024-02-05T04:42:56.348Z,67.54
2024-02-05T04:43:56.316Z,67.49
2024-02-05T04:44:56.330Z,67.44
2024-02-05T04:45:56.382Z,67.44
2024-02-05T04:46:56.378Z,67.54
2024-02-05T04:47:56.452Z,67.48
2024-02-05T04:48:56.562Z,67.43
2024-02-05T04:49:56.581Z,67.37
2024-02-05T04:50:56.508Z,67.16
2024-02-05T04:51:56.553Z,67.15
2024-02-05T04:52:56.568Z,67.49
2024-02-05T04:53:56.605Z,67.51
2024-02-05T04:54:56.695Z,67.43
2024-02-05T04:55:56.689Z,67.46
2024-02-05T04:56:56.709Z,67.52
2024-02-05T04:57:56.810Z,67.86
2024-02-05T04:58:56.856Z,67.93
2024-02-05T04:59:56.865Z,67.85
2024-02-05T05:00:56.898Z,67.81
2024-02-05T05:01:56.964Z,67.66
2024-02-05T05:02:56.842Z,67.80
2024-02-05T05:03:56.862Z,67.98
2024-02-05T05:04:56.865Z,67.90
2024-02-05T05:05:56.837Z,67.77
2024-02-05T05:06:56.872Z,67.65
2024-02-05T05:07:56.867Z,67.63
2024-02-05T05:08:56.812Z,67.53
2024-02-05T05:09:56.810Z,67.59
2024-02-05T05:10:56.775Z,67.63
2024-02-05T05:11:56.741Z,67.75
2024-02-05T05:12:56.774Z,67.82
2024-02-05T05:13:56.742Z,67.75
2024-02-05T05:14:56.719Z,67.78
2024-02-05T05:15:56.742Z,67.88
2024-02-05T05:16:56.750Z,67.93
2024-02-05T05:17:56.779Z,67.93
2024-02-05T05:18:56.781Z,67.83
2024-02-05T05:19:56.729Z,67.73
2024-02-05T05:20:56.696Z,67.81
2024-02-05T05:21:56.750Z,67.71
2024-02-05T05:22:57.166Z,67.61
2024-02-05T05:23:56.662Z,67.54
2024-02-05T05:24:56.650Z,67.60
2024-02-05T05:25:56.625Z,67.53
2024-02-05T05:26:56.598Z,67.55
2024-02-05T05:27:56.615Z,67.68
2024-02-05T05:28:56.599Z,67.85
2024-02-05T05:29:56.602Z,67.83
2024-02-05T05:30:56.639Z,67.71
2024-02-05T05:31:56.619Z,67.61
2024-02-05T05:32:56.668Z,67.56
2024-02-05T05:33:56.718Z,67.52
2024-02-05T05:34:56.703Z,67.37
2024-02-05T05:36:04.500Z,67.85
2024-02-05T05:37:04.519Z,67.69
2024-02-05T05:38:04.567Z,67.60
2024-02-05T05:39:04.872Z,67.51
2024-02-05T05:40:04.514Z,67.76
2024-02-05T05:41:04.485Z,67.82
2024-02-05T05:42:04.501Z,67.78
2024-02-05T05:43:04.435Z,67.62
2024-02-05T05:44:04.443Z,67.62
2024-02-05T05:45:04.473Z,67.61
2024-02-05T05:46:04.467Z,67.63
2024-02-05T05:47:04.443Z,67.57
2024-02-05T05:48:04.443Z,67.56
2024-02-05T05:49:04.968Z,67.54
2024-02-05T05:50:04.539Z,67.63
2024-02-05T05:51:04.380Z,67.88
2024-02-05T05:52:04.455Z,68.09
2024-02-05T05:53:04.503Z,68.16
2024-02-05T05:54:04.432Z,68.22
2024-02-05T05:55:04.444Z,68.12
2024-02-05T05:56:04.379Z,68.11
2024-02-05T05:57:04.369Z,68.13
2024-02-05T05:58:04.377Z,67.98
2024-02-05T05:59:04.356Z,67.91
2024-02-05T06:00:04.344Z,67.93
2024-02-05T06:01:04.382Z,67.99
2024-02-05T06:02:04.399Z,67.98
2024-02-05T06:03:04.295Z,67.82
2024-02-05T06:04:04.413Z,67.75
2024-02-05T06:05:05.857Z,67.64
2024-02-05T06:06:04.320Z,67.72
2024-02-05T06:07:04.312Z,67.83
2024-02-05T06:08:04.250Z,67.91
2024-02-05T06:09:04.271Z,67.81
2024-02-05T06:10:04.287Z,68.05
2024-02-05T06:11:04.329Z,68.16
2024-02-05T06:12:04.229Z,68.28
2024-02-05T06:13:04.266Z,68.24
2024-02-05T06:14:04.270Z,68.09
2024-02-05T06:15:04.228Z,68.08
2024-02-05T06:16:04.244Z,68.16
2024-02-05T06:17:04.204Z,68.43
2024-02-05T06:18:04.261Z,68.53
2024-02-05T06:19:04.292Z,68.59
2024-02-05T06:20:04.194Z,68.52
2024-02-05T06:21:04.164Z,68.37
2024-02-05T06:22:04.174Z,68.29
2024-02-05T06:23:04.145Z,68.18
2024-02-05T06:24:04.145Z,68.05
2024-02-05T06:25:04.124Z,67.92
2024-02-05T06:26:04.080Z,67.85
2024-02-05T06:27:04.057Z,67.76
2024-02-05T06:28:07.295Z,67.77
2024-02-05T06:29:05.103Z,67.81
2024-02-05T06:30:04.065Z,67.81
2024-02-05T06:31:04.166Z,67.81
2024-02-05T06:32:04.131Z,67.77
2024-02-05T06:33:04.383Z,67.65
2024-02-05T06:34:08.566Z,67.50
2024-02-05T06:35:05.156Z,67.62
2024-02-05T06:36:03.999Z,67.63
2024-02-05T06:37:04.074Z,67.55
2024-02-05T06:38:03.994Z,67.71
2024-02-05T06:39:04.144Z,67.69
2024-02-05T06:40:04.195Z,67.67
2024-02-05T06:41:04.080Z,67.70
2024-02-05T06:42:04.116Z,67.70
2024-02-05T06:43:04.239Z,67.73
2024-02-05T06:44:04.119Z,67.73
2024-02-05T06:45:04.081Z,67.80
2024-02-05T06:46:04.237Z,67.90
2024-02-05T06:47:04.080Z,67.84
2024-02-05T06:48:04.136Z,67.88
2024-02-05T06:49:04.081Z,67.73
2024-02-05T06:50:06.885Z,67.72
2024-02-05T06:51:04.001Z,67.59
2024-02-05T06:52:04.032Z,67.49
2024-02-05T06:53:04.122Z,67.49
2024-02-05T06:54:03.955Z,67.58
2024-02-05T06:55:03.973Z,67.63
2024-02-05T06:56:03.947Z,67.58
2024-02-05T06:57:04.016Z,67.56
2024-02-05T06:58:04.032Z,67.60
2024-02-05T06:59:03.908Z,67.74
2024-02-05T07:00:03.881Z,67.73
2024-02-05T07:01:03.927Z,67.68
2024-02-05T07:02:06.453Z,67.41
2024-02-05T07:03:03.807Z,67.33
2024-02-05T07:04:03.882Z,67.31
2024-02-05T07:05:04.005Z,67.15
2024-02-05T07:06:04.089Z,67.28
2024-02-05T07:07:03.988Z,67.24
2024-02-05T07:08:03.754Z,67.16
2024-02-05T07:09:03.723Z,67.06
2024-02-05T07:10:03.787Z,66.95
2024-02-05T07:11:03.714Z,66.93
2024-02-05T07:12:03.697Z,66.92
2024-02-05T07:13:03.723Z,66.97
2024-02-05T07:14:05.389Z,67.00
2024-02-05T07:15:03.689Z,66.98
2024-02-05T07:16:03.638Z,66.95
2024-02-05T07:17:03.667Z,66.86
2024-02-05T07:18:03.686Z,66.80
2024-02-05T07:19:03.659Z,66.69
2024-02-05T07:20:03.706Z,66.59
2024-02-05T07:21:03.548Z,66.39
2024-02-05T07:22:06.398Z,66.34
2024-02-05T07:23:04.778Z,66.39
2024-02-05T07:24:03.956Z,66.31
2024-02-05T07:25:04.431Z,66.24
2024-02-05T07:26:03.433Z,66.20
2024-02-05T07:27:03.459Z,65.95
2024-02-05T07:28:03.413Z,65.90
2024-02-05T07:29:03.387Z,65.91
2024-02-05T07:30:03.395Z,65.92
2024-02-05T07:31:03.399Z,65.81
2024-02-05T07:32:03.334Z,65.80
2024-02-05T07:33:03.306Z,65.77
2024-02-05T07:34:03.384Z,65.72
2024-02-05T07:35:03.389Z,65.76
2024-02-05T07:36:03.211Z,65.56
2024-02-05T07:37:03.263Z,65.69
2024-02-05T07:38:03.205Z,65.78
2024-02-05T07:39:03.413Z,65.84
2024-02-05T07:40:03.138Z,65.82
2024-02-05T07:41:05.904Z,65.74
2024-02-05T07:42:03.112Z,65.65
2024-02-05T07:43:03.143Z,65.61
2024-02-05T07:44:03.409Z,65.40
2024-02-05T07:45:03.332Z,65.39
2024-02-05T07:46:03.052Z,65.50
2024-02-05T07:47:03.051Z,65.46
2024-02-05T07:48:03.098Z,65.35
2024-02-05T07:49:03.094Z,65.26
2024-02-05T07:50:03.064Z,65.25
2024-02-05T07:51:02.981Z,65.26
2024-02-05T07:52:03.007Z,65.27
2024-02-05T07:53:02.936Z,65.30
2024-02-05T07:54:03.032Z,65.28
2024-02-05T07:55:06.700Z,65.22
2024-02-05T07:56:04.669Z,65.09
2024-02-05T07:57:05.385Z,64.97
2024-02-05T07:58:03.142Z,64.81
2024-02-05T07:59:03.078Z,64.76
2024-02-05T08:00:03.029Z,64.67
2024-02-05T08:01:04.326Z,64.49
2024-02-05T08:02:05.947Z,64.28
2024-02-05T08:03:03.068Z,64.10
2024-02-05T08:04:03.089Z,64.00
2024-02-05T08:05:03.327Z,63.96
2024-02-05T08:06:02.894Z,63.87
2024-02-05T08:07:02.919Z,63.79
2024-02-05T08:08:02.949Z,63.66
2024-02-05T08:09:02.954Z,63.72
2024-02-05T08:10:03.500Z,63.74
2024-02-05T08:11:02.954Z,63.75
2024-02-05T08:12:03.011Z,63.16
2024-02-05T08:13:05.942Z,63.02
2024-02-05T08:14:02.986Z,62.84
2024-02-05T08:15:02.933Z,62.79
2024-02-05T08:16:03.049Z,62.61
2024-02-05T08:17:04.557Z,62.60
2024-02-05T08:18:02.985Z,62.68
2024-02-05T08:19:02.895Z,62.66
2024-02-05T08:20:02.835Z,62.51
2024-02-05T08:21:02.712Z,62.43
2024-02-05T08:22:03.459Z,62.42
2024-02-05T08:23:02.634Z,62.45
2024-02-05T08:24:02.617Z,62.50
2024-02-05T08:25:02.677Z,62.19
2024-02-05T08:26:02.562Z,61.96
2024-02-05T08:27:02.517Z,61.71
2024-02-05T08:28:02.550Z,61.58
2024-02-05T08:29:02.510Z,61.65
2024-02-05T08:30:02.436Z,61.65
2024-02-05T08:31:02.453Z,61.44
2024-02-05T08:32:04.912Z,61.61
2024-02-05T08:33:02.616Z,61.64
2024-02-05T08:34:02.725Z,61.68
2024-02-05T08:35:02.800Z,61.51
2024-02-05T08:36:02.578Z,61.28
2024-02-05T08:37:02.648Z,61.17
2024-02-05T08:38:02.609Z,60.81
2024-02-05T08:39:02.999Z,60.61
2024-02-05T08:40:02.655Z,60.68
2024-02-05T08:41:02.604Z,60.65
2024-02-05T08:42:12.027Z,60.44
2024-02-05T08:43:03.626Z,60.17
2024-02-05T08:44:02.485Z,60.02
2024-02-05T08:45:04.770Z,59.97
2024-02-05T08:46:02.435Z,60.05
2024-02-05T08:47:02.325Z,59.67
2024-02-05T08:48:02.324Z,59.42
2024-02-05T08:49:02.345Z,59.22
2024-02-05T08:50:02.452Z,59.23
2024-02-05T08:51:02.143Z,59.29
2024-02-05T08:52:02.091Z,59.23
2024-02-05T08:53:02.032Z,58.94
2024-02-05T08:54:02.013Z,58.47
2024-02-05T08:55:01.930Z,58.05
2024-02-05T08:56:01.873Z,57.72
2024-02-05T08:57:01.840Z,57.79
2024-02-05T08:58:01.885Z,57.55
2024-02-05T08:59:01.797Z,57.17
2024-02-05T09:00:01.699Z,57.09
2024-02-05T09:01:02.463Z,57.02
2024-02-05T09:02:01.909Z,57.18
2024-02-05T09:03:02.441Z,56.96
2024-02-05T09:04:01.473Z,56.14
2024-02-05T09:05:01.710Z,55.82
2024-02-05T09:06:01.965Z,55.94
2024-02-05T09:07:01.667Z,56.00
2024-02-05T09:08:01.346Z,55.79
2024-02-05T09:09:01.165Z,55.79
2024-02-05T09:10:01.245Z,55.55
2024-02-05T09:11:01.709Z,55.67
2024-02-05T09:12:06.337Z,55.24
2024-02-05T09:13:02.031Z,55.18
2024-02-05T09:14:01.010Z,54.96
2024-02-05T09:15:01.723Z,54.93
2024-02-05T09:16:00.950Z,54.68
2024-02-05T09:17:03.995Z,54.50
2024-02-05T09:18:00.806Z,54.34
2024-02-05T09:19:00.801Z,54.41
2024-02-05T09:20:00.733Z,54.12
2024-02-05T09:21:00.575Z,53.85
2024-02-05T09:22:00.554Z,53.75
2024-02-05T09:23:00.480Z,53.40
2024-02-05T09:24:00.350Z,53.46
2024-02-05T09:25:00.770Z,53.35
2024-02-05T09:26:00.202Z,53.39
2024-02-05T09:27:00.147Z,53.40
2024-02-05T09:28:00.101Z,52.87
2024-02-05T09:28:59.984Z,52.46
2024-02-05T09:29:59.963Z,52.32
2024-02-05T09:31:08.883Z,52.28
2024-02-05T09:32:01.001Z,52.62
2024-02-05T09:32:59.771Z,52.47
2024-02-05T09:33:59.680Z,52.48
2024-02-05T09:34:59.680Z,52.02
2024-02-05T09:36:00.537Z,51.48
2024-02-05T09:36:59.722Z,51.33
2024-02-05T09:37:59.891Z,51.17
2024-02-05T09:38:59.916Z,51.30
2024-02-05T09:39:59.343Z,51.43
2024-02-05T09:40:59.189Z,51.35
2024-02-05T09:41:59.228Z,51.27
2024-02-05T09:42:59.126Z,51.23
2024-02-05T09:43:59.037Z,50.99
2024-02-05T09:44:58.965Z,50.93
2024-02-05T09:45:58.893Z,50.52
2024-02-05T09:46:58.829Z,50.51
2024-02-05T09:47:58.810Z,50.32
2024-02-05T09:48:58.888Z,50.14
2024-02-05T09:49:58.726Z,50.27
2024-02-05T09:51:00.177Z,50.19
2024-02-05T09:51:58.490Z,49.87
2024-02-05T09:52:58.337Z,49.71
2024-02-05T09:54:07.704Z,49.77
2024-02-05T09:54:59.268Z,48.91
2024-02-05T09:55:58.135Z,49.01
2024-02-05T09:56:58.058Z,49.12
2024-02-05T09:57:58.064Z,48.96
2024-02-05T09:58:57.898Z,48.79
2024-02-05T09:59:57.950Z,49.00
2024-02-05T10:00:57.791Z,49.13
2024-02-05T10:01:57.709Z,49.29
2024-02-05T10:02:57.553Z,48.50
2024-02-05T10:03:57.595Z,48.04
2024-02-05T10:04:57.608Z,48.04
2024-02-05T10:05:57.318Z,47.84
2024-02-05T10:06:58.007Z,48.08
2024-02-05T10:07:57.175Z,48.00
2024-02-05T10:08:57.064Z,47.33
2024-02-05T10:09:56.977Z,47.26
2024-02-05T10:10:56.879Z,46.86
2024-02-05T10:11:56.920Z,46.96
2024-02-05T10:12:56.724Z,46.51
2024-02-05T10:13:56.628Z,46.60
2024-02-05T10:14:56.505Z,46.84
2024-02-05T10:15:56.424Z,46.40
2024-02-05T10:16:56.349Z,45.95
2024-02-05T10:17:56.289Z,45.12
2024-02-05T10:18:56.209Z,44.24
2024-02-05T10:19:56.136Z,44.14
2024-02-05T10:20:55.990Z,43.52
2024-02-05T10:21:55.907Z,43.89
2024-02-05T10:22:55.867Z,44.67
2024-02-05T10:23:55.821Z,43.90
2024-02-05T10:24:55.737Z,44.32
2024-02-05T10:25:55.620Z,43.99
2024-02-05T10:26:55.683Z,43.53
2024-02-05T10:27:55.581Z,43.37
2024-02-05T10:28:55.673Z,43.94
2024-02-05T10:29:55.542Z,43.97
2024-02-05T10:30:55.528Z,43.70
2024-02-05T10:31:55.464Z,43.75
2024-02-05T10:32:55.427Z,43.00
2024-02-05T10:33:55.434Z,42.04
2024-02-05T10:34:55.672Z,41.93
2024-02-05T10:35:55.090Z,41.79
2024-02-05T10:36:55.037Z,41.12
2024-02-05T10:37:54.934Z,40.05
2024-02-05T10:38:54.741Z,40.02
2024-02-05T10:39:54.773Z,39.73
2024-02-05T10:40:54.535Z,39.77
2024-02-05T10:41:54.427Z,39.87
2024-02-05T10:42:54.335Z,39.51
2024-02-05T10:43:54.170Z,38.11
2024-02-05T10:44:54.092Z,37.38
2024-02-05T10:45:54.043Z,37.98
2024-02-05T10:46:55.695Z,35.36
2024-02-05T10:47:53.842Z,35.58
2024-02-05T10:48:53.724Z,37.50
2024-02-05T10:49:53.683Z,35.76
2024-02-05T10:50:53.425Z,35.24
2024-02-05T10:51:53.368Z,34.78
2024-02-05T10:52:53.935Z,34.90
2024-02-05T10:53:53.125Z,34.93
2024-02-05T10:54:53.028Z,34.34
2024-02-05T10:55:52.869Z,34.31
2024-02-05T10:56:52.725Z,34.25
2024-02-05T10:57:52.782Z,34.76
2024-02-05T10:58:52.516Z,34.05
2024-02-05T10:59:52.369Z,33.57
2024-02-05T11:00:52.338Z,32.94
2024-02-05T11:01:52.242Z,32.64
2024-02-05T11:02:52.009Z,32.99
2024-02-05T11:03:51.864Z,32.31
2024-02-05T11:04:51.814Z,32.86
2024-02-05T11:05:52.481Z,32.99
2024-02-05T11:06:51.737Z,32.96
2024-02-05T11:07:51.385Z,32.50
2024-02-05T11:08:51.209Z,31.75
2024-02-05T11:09:51.233Z,31.83
2024-02-05T11:10:51.012Z,31.84
2024-02-05T11:11:50.884Z,31.56
2024-02-05T11:12:50.881Z,31.61
2024-02-05T11:13:50.688Z,31.46
2024-02-05T11:14:50.658Z,31.38
2024-02-05T11:15:50.574Z,31.01
2024-02-05T11:16:50.510Z,30.70
2024-02-05T11:17:50.371Z,31.01
2024-02-05T11:18:50.318Z,31.02
2024-02-05T11:19:50.115Z,30.95
2024-02-05T11:20:49.952Z,30.61
2024-02-05T11:21:52.981Z,30.65
2024-02-05T11:22:50.787Z,30.88
2024-02-05T11:23:49.650Z,31.25
2024-02-05T11:24:49.618Z,30.96
2024-02-05T11:25:49.509Z,30.95
2024-02-05T11:26:49.349Z,30.72
2024-02-05T11:27:49.287Z,30.84
2024-02-05T11:28:49.187Z,30.85
2024-02-05T11:29:49.355Z,30.15
2024-02-05T11:30:49.007Z,30.05
2024-02-05T11:31:48.910Z,30.12
2024-02-05T11:32:48.871Z,30.16
2024-02-05T11:33:48.777Z,29.94
2024-02-05T11:34:48.787Z,29.75
2024-02-05T11:35:49.503Z,29.23
2024-02-05T11:36:48.483Z,29.15
2024-02-05T11:37:48.507Z,29.17
2024-02-05T11:38:48.171Z,29.57
2024-02-05T11:39:48.168Z,29.59
2024-02-05T11:40:47.981Z,29.52
2024-02-05T11:41:47.870Z,28.78
2024-02-05T11:42:47.829Z,28.78
2024-02-05T11:43:47.617Z,28.43
2024-02-05T11:44:47.502Z,28.19
2024-02-05T11:45:47.443Z,28.74
2024-02-05T11:46:47.294Z,28.89
2024-02-05T11:47:48.034Z,29.30
2024-02-05T11:48:47.153Z,28.77
2024-02-05T11:49:47.108Z,29.22
2024-02-05T11:50:46.906Z,29.28
2024-02-05T11:51:46.745Z,29.02
2024-02-05T11:52:46.614Z,28.88
2024-02-05T11:53:47.512Z,29.23
2024-02-05T11:54:46.484Z,29.15
2024-02-05T11:55:46.309Z,29.55
2024-02-05T11:56:46.952Z,30.05
2024-02-05T11:57:46.112Z,29.84
2024-02-05T11:58:45.998Z,29.76
2024-02-05T11:59:50.429Z,29.39
2024-02-05T12:00:45.849Z,29.66
2024-02-05T12:01:45.834Z,29.91
2024-02-05T12:02:45.575Z,29.83
2024-02-05T12:03:45.492Z,29.34
2024-02-05T12:04:45.402Z,29.48
2024-02-05T12:05:45.375Z,29.62
2024-02-05T12:06:45.293Z,29.58
2024-02-05T12:07:45.077Z,29.27
2024-02-05T12:08:44.954Z,29.46
2024-02-05T12:09:44.896Z,29.40
2024-02-05T12:10:44.785Z,29.52
2024-02-05T12:11:45.432Z,29.29
2024-02-05T12:12:44.595Z,29.25
2024-02-05T12:13:44.482Z,29.30
2024-02-05T12:14:44.413Z,29.53
2024-02-05T12:15:44.362Z,29.48
2024-02-05T12:16:44.166Z,29.67
2024-02-05T12:17:44.177Z,29.89
2024-02-05T12:18:46.787Z,29.18
2024-02-05T12:19:43.952Z,28.51
2024-02-05T12:20:44.154Z,28.54
2024-02-05T12:21:43.641Z,28.87
2024-02-05T12:22:43.475Z,28.88
2024-02-05T12:23:43.384Z,28.20
2024-02-05T12:24:43.274Z,28.74
2024-02-05T12:25:43.742Z,29.33
2024-02-05T12:26:43.007Z,29.27
2024-02-05T12:27:43.603Z,29.20
2024-02-05T12:28:42.765Z,29.37
2024-02-05T12:29:43.033Z,29.30
2024-02-05T12:30:42.583Z,29.66
2024-02-05T12:31:42.498Z,29.37
2024-02-05T12:32:47.958Z,29.29
2024-02-05T12:33:43.408Z,29.58
2024-02-05T12:34:42.246Z,29.73
2024-02-05T12:35:42.028Z,29.45
2024-02-05T12:36:41.918Z,29.40
2024-02-05T12:37:41.818Z,29.19
2024-02-05T12:38:41.749Z,29.61
2024-02-05T12:39:41.622Z,30.13
2024-02-05T12:40:41.546Z,30.21
2024-02-05T12:41:41.377Z,29.40
2024-02-05T12:42:41.249Z,28.70
2024-02-05T12:43:41.109Z,28.86
2024-02-05T12:44:44.883Z,28.42
2024-02-05T12:45:41.817Z,28.58
2024-02-05T12:46:40.750Z,28.69
2024-02-05T12:47:40.608Z,28.67
2024-02-05T12:48:40.530Z,28.88
2024-02-05T12:49:41.152Z,28.91
2024-02-05T12:50:40.181Z,28.71
2024-02-05T12:51:40.044Z,28.86
2024-02-05T12:52:39.909Z,29.00